Time;durP1;ratioP1;P1;durP2;ratioP2;P2;SDS_P1;SDS_P2;PMS_P1;PMS_P2;Temp;Humidity;BMP_temperature;BMP_pressure;BME280_temperature;BME280_humidity;BME280_pressure;Samples;Min_cycle;Max_cycle;Signal;HPM_P1;HPM_P2
2022/08/07 00:01:49;;;;;;;;;;;14.60;99.90;;;;;;5007180;28;20001;-70
2022/08/07 00:04:16;;;;;;;;;;;14.50;99.90;;;;;;5006877;28;19933;-70
2022/08/07 00:06:43;;;;;;;;;;;14.40;99.90;;;;;;5009169;28;19968;-70
2022/08/07 00:09:10;;;;;;;;;;;14.40;99.90;;;;;;5006877;28;20380;-70
2022/08/07 00:11:36;;;;;;;;;;;14.30;99.90;;;;;;5009775;28;20014;-70
2022/08/07 00:14:05;;;;;;;;;;;14.20;99.90;;;;;;5007598;28;19964;-70
2022/08/07 00:16:31;;;;;;;;;;;14.20;99.90;;;;;;5008063;28;19929;-70
2022/08/07 00:18:58;;;;;;;;;;;14.10;99.90;;;;;;5005517;28;20012;-70
2022/08/07 00:21:25;;;;;;;;;;;14.10;99.90;;;;;;5008799;28;19925;-70
2022/08/07 00:23:51;;;;;;;;;;;14.10;99.90;;;;;;5007931;28;20019;-70
2022/08/07 00:26:18;;;;;;;;;;;14.00;99.90;;;;;;5007019;28;20016;-70
2022/08/07 00:28:45;;;;;;;;;;;14.00;99.90;;;;;;5006320;28;20396;-70
2022/08/07 00:31:13;;;;;;;;;;;14.00;99.90;;;;;;5007302;28;19972;-70
2022/08/07 00:33:40;;;;;;;;;;;13.90;99.90;;;;;;4997110;28;19976;-70
2022/08/07 00:36:08;;;;;;;;;;;13.80;99.90;;;;;;5007708;28;19965;-70
2022/08/07 00:38:35;;;;;;;;;;;13.80;99.90;;;;;;5008408;28;20365;-70
2022/08/07 00:41:02;;;;;;;;;;;13.70;99.90;;;;;;5008331;28;19934;-70
2022/08/07 00:43:29;;;;;;;;;;;13.60;99.90;;;;;;5004930;28;20699;-70
2022/08/07 00:45:56;;;;;;;;;;;13.60;99.90;;;;;;5009884;28;20266;-70
2022/08/07 00:48:25;;;;;;;;;;;13.60;99.90;;;;;;5007240;28;20377;-71
2022/08/07 00:50:51;;;;;;;;;;;13.50;99.90;;;;;;5008911;28;20007;-70
2022/08/07 00:53:19;;;;;;;;;;;13.50;99.90;;;;;;5004178;28;19968;-71
2022/08/07 00:55:45;;;;;;;;;;;13.50;99.90;;;;;;5008845;28;19925;-72
2022/08/07 00:58:12;;;;;;;;;;;13.50;99.90;;;;;;5006372;28;20023;-71
2022/08/07 01:00:39;;;;;;;;;;;13.50;99.90;;;;;;5008371;28;20401;-71
2022/08/07 01:03:06;;;;;;;;;;;13.50;99.90;;;;;;5005713;28;19933;-71
2022/08/07 01:05:35;;;;;;;;;;;13.50;99.90;;;;;;5007122;28;19933;-71
2022/08/07 01:08:01;;;;;;;;;;;13.50;99.90;;;;;;5006350;28;20448;-70
2022/08/07 01:10:28;;;;;;;;;;;13.40;99.90;;;;;;5005742;28;20033;-71
2022/08/07 01:12:55;;;;;;;;;;;13.40;99.90;;;;;;5007106;28;20019;-72
2022/08/07 01:15:23;;;;;;;;;;;13.30;99.90;;;;;;5008811;28;19969;-72
2022/08/07 01:17:51;;;;;;;;;;;13.30;99.90;;;;;;5006772;28;19930;-71
2022/08/07 01:20:21;;;;;;;;;;;13.20;99.90;;;;;;5006488;28;19969;-72
2022/08/07 01:22:50;;;;;;;;;;;13.10;99.90;;;;;;5007704;28;19995;-72
2022/08/07 01:25:18;;;;;;;;;;;13.00;99.90;;;;;;5008140;28;20400;-72
2022/08/07 01:27:45;;;;;;;;;;;12.90;99.90;;;;;;5007570;28;19969;-72
2022/08/07 01:30:12;;;;;;;;;;;12.90;99.90;;;;;;5012929;28;20016;-72
2022/08/07 01:32:39;;;;;;;;;;;12.90;99.90;;;;;;5009206;28;20008;-71
2022/08/07 01:35:06;;;;;;;;;;;12.90;99.90;;;;;;5004221;28;19932;-71
2022/08/07 01:37:33;;;;;;;;;;;12.90;99.90;;;;;;5010091;28;20394;-71
2022/08/07 01:40:03;;;;;;;;;;;12.80;99.90;;;;;;5008052;28;19932;-70
2022/08/07 01:42:29;;;;;;;;;;;12.80;99.90;;;;;;5012154;28;19933;-71
2022/08/07 01:44:56;;;;;;;;;;;12.80;99.90;;;;;;5009355;28;19930;-70
2022/08/07 01:47:23;;;;;;;;;;;12.80;99.90;;;;;;5012738;28;19925;-70
2022/08/07 01:49:49;;;;;;;;;;;12.80;99.90;;;;;;5009832;28;20012;-70
2022/08/07 01:52:17;;;;;;;;;;;12.80;99.90;;;;;;5011441;28;19933;-72
2022/08/07 01:54:44;;;;;;;;;;;12.80;99.90;;;;;;5009820;28;19930;-71
2022/08/07 01:57:15;;;;;;;;;;;12.80;99.90;;;;;;5010012;28;20032;-71
2022/08/07 01:59:43;;;;;;;;;;;12.70;99.90;;;;;;5010320;28;20024;-72
2022/08/07 02:02:13;;;;;;;;;;;12.70;99.90;;;;;;5008860;28;20046;-71
2022/08/07 02:04:41;;;;;;;;;;;12.70;99.90;;;;;;5008757;28;20040;-71
2022/08/07 02:07:08;;;;;;;;;;;12.60;99.90;;;;;;5010012;28;19925;-71
2022/08/07 02:09:35;;;;;;;;;;;12.60;99.90;;;;;;5006453;28;19972;-71
2022/08/07 02:12:15;;;;;;;;;;;12.60;99.90;;;;;;5007652;28;19965;-70
2022/08/07 02:14:44;;;;;;;;;;;12.60;99.90;;;;;;5008329;28;20022;-71
2022/08/07 02:17:12;;;;;;;;;;;12.60;99.90;;;;;;5011411;28;20554;-71
2022/08/07 02:19:41;;;;;;;;;;;12.60;99.90;;;;;;5008511;28;19933;-71
2022/08/07 02:22:09;;;;;;;;;;;12.60;99.90;;;;;;5010416;28;20024;-70
2022/08/07 02:24:36;;;;;;;;;;;12.60;99.90;;;;;;5008232;28;19926;-71
2022/08/07 02:27:03;;;;;;;;;;;12.50;99.90;;;;;;5004181;28;20336;-70
2022/08/07 02:29:31;;;;;;;;;;;12.40;99.90;;;;;;5008715;28;19940;-70
2022/08/07 02:32:00;;;;;;;;;;;12.30;99.90;;;;;;5010257;28;19925;-69
2022/08/07 02:34:27;;;;;;;;;;;12.30;99.90;;;;;;5009475;28;19968;-70
2022/08/07 02:36:54;;;;;;;;;;;12.30;99.90;;;;;;5010165;28;19968;-71
2022/08/07 02:39:22;;;;;;;;;;;12.30;99.90;;;;;;5008588;28;20389;-70
2022/08/07 02:41:49;;;;;;;;;;;12.30;99.90;;;;;;5011627;28;19932;-72
2022/08/07 02:44:17;;;;;;;;;;;12.30;99.90;;;;;;5006749;28;19929;-72
2022/08/07 02:46:46;;;;;;;;;;;12.30;99.90;;;;;;5009964;28;20009;-70
2022/08/07 02:49:14;;;;;;;;;;;12.20;99.90;;;;;;5008200;28;19925;-71
2022/08/07 02:51:41;;;;;;;;;;;12.20;99.90;;;;;;5011091;28;20417;-71
2022/08/07 02:54:09;;;;;;;;;;;12.20;99.90;;;;;;5009256;28;20019;-70
2022/08/07 02:56:38;;;;;;;;;;;12.20;99.90;;;;;;5008871;28;19993;-70
2022/08/07 02:59:08;;;;;;;;;;;12.10;99.90;;;;;;5008451;28;20364;-70
2022/08/07 03:01:37;;;;;;;;;;;12.10;99.90;;;;;;5009327;28;19969;-70
2022/08/07 03:04:05;;;;;;;;;;;12.10;99.90;;;;;;5008633;28;20288;-72
2022/08/07 03:06:34;;;;;;;;;;;12.10;99.90;;;;;;5009342;28;19948;-71
2022/08/07 03:09:01;;;;;;;;;;;12.10;99.90;;;;;;5008246;28;20021;-71
2022/08/07 03:11:28;;;;;;;;;;;12.10;99.90;;;;;;5007934;28;20010;-70
2022/08/07 03:13:55;;;;;;;;;;;12.00;99.90;;;;;;5008532;28;19971;-70
2022/08/07 03:16:22;;;;;;;;;;;12.00;99.90;;;;;;5009297;28;19980;-70
2022/08/07 03:18:49;;;;;;;;;;;12.00;99.90;;;;;;5009367;28;19983;-70
2022/08/07 03:21:16;;;;;;;;;;;12.00;99.90;;;;;;5010028;28;19996;-70
2022/08/07 03:23:45;;;;;;;;;;;12.00;99.90;;;;;;5009278;28;20016;-70
2022/08/07 03:26:12;;;;;;;;;;;12.00;99.90;;;;;;5008550;28;19968;-71
2022/08/07 03:28:40;;;;;;;;;;;12.00;99.90;;;;;;5009498;28;20020;-71
2022/08/07 03:31:19;;;;;;;;;;;12.00;99.90;;;;;;5009261;28;20012;-71
2022/08/07 03:33:47;;;;;;;;;;;11.90;99.90;;;;;;5004700;28;19965;-72
2022/08/07 03:36:14;;;;;;;;;;;11.80;99.90;;;;;;5011002;28;19968;-71
2022/08/07 03:38:41;;;;;;;;;;;11.80;99.90;;;;;;5008179;28;19932;-72
2022/08/07 03:41:10;;;;;;;;;;;11.70;99.90;;;;;;5009616;28;20016;-72
2022/08/07 03:43:38;;;;;;;;;;;11.60;99.90;;;;;;5006730;28;20743;-71
2022/08/07 03:46:05;;;;;;;;;;;11.70;99.90;;;;;;5008094;28;19926;-71
2022/08/07 03:48:33;;;;;;;;;;;11.70;99.90;;;;;;5010455;28;20012;-71
2022/08/07 03:51:00;;;;;;;;;;;11.60;99.90;;;;;;5009218;28;19965;-71
2022/08/07 03:53:27;;;;;;;;;;;11.60;99.90;;;;;;5009699;28;19957;-71
2022/08/07 03:55:54;;;;;;;;;;;11.50;99.90;;;;;;5009909;28;20012;-71
2022/08/07 03:58:22;;;;;;;;;;;11.50;99.90;;;;;;5007148;28;19975;-71
2022/08/07 04:00:49;;;;;;;;;;;11.50;99.90;;;;;;5009491;28;20393;-71
2022/08/07 04:03:16;;;;;;;;;;;11.40;99.90;;;;;;5008677;28;20405;-71
2022/08/07 04:05:43;;;;;;;;;;;11.50;99.90;;;;;;5009358;28;19925;-71
2022/08/07 04:08:11;;;;;;;;;;;11.50;99.90;;;;;;5007383;28;19926;-71
2022/08/07 04:10:38;;;;;;;;;;;11.40;99.90;;;;;;5005125;28;19925;-71
2022/08/07 04:13:06;;;;;;;;;;;11.50;99.90;;;;;;5008494;28;20001;-71
2022/08/07 04:15:34;;;;;;;;;;;11.50;99.90;;;;;;5007032;28;19972;-71
2022/08/07 04:18:01;;;;;;;;;;;11.40;99.90;;;;;;5008004;28;19969;-71
2022/08/07 04:20:28;;;;;;;;;;;11.50;99.90;;;;;;5010414;28;20004;-71
2022/08/07 04:22:55;;;;;;;;;;;11.60;99.90;;;;;;5007337;28;20016;-71
2022/08/07 04:25:22;;;;;;;;;;;11.60;99.90;;;;;;5009202;28;20297;-71
2022/08/07 04:27:49;;;;;;;;;;;11.60;99.90;;;;;;4997808;28;19960;-71
2022/08/07 04:30:15;;;;;;;;;;;11.60;99.90;;;;;;5008427;28;19925;-71
2022/08/07 04:32:44;;;;;;;;;;;11.60;99.90;;;;;;5008510;28;19932;-71
2022/08/07 04:35:11;;;;;;;;;;;11.60;99.90;;;;;;5007447;28;20028;-71
2022/08/07 04:37:38;;;;;;;;;;;11.50;99.90;;;;;;5009256;28;20297;-71
2022/08/07 04:40:05;;;;;;;;;;;11.50;99.90;;;;;;5008854;28;20339;-71
2022/08/07 04:42:33;;;;;;;;;;;11.40;99.90;;;;;;5010926;28;20345;-71
2022/08/07 04:45:01;;;;;;;;;;;11.50;99.90;;;;;;5006012;28;19929;-71
2022/08/07 04:47:31;;;;;;;;;;;11.50;99.90;;;;;;5006130;28;20480;-71
2022/08/07 04:50:02;;;;;;;;;;;11.50;99.90;;;;;;5008274;28;20471;-71
2022/08/07 04:52:31;;;;;;;;;;;11.50;99.90;;;;;;5010449;28;20356;-71
2022/08/07 04:55:01;;;;;;;;;;;11.50;99.90;;;;;;4999763;28;19925;-71
2022/08/07 04:57:31;;;;;;;;;;;11.50;99.90;;;;;;5008394;28;19925;-70
2022/08/07 05:00:01;;;;;;;;;;;11.50;99.90;;;;;;5000265;28;20020;-70
2022/08/07 05:02:30;;;;;;;;;;;11.60;99.90;;;;;;5007694;28;19968;-70
2022/08/07 05:05:00;;;;;;;;;;;11.60;99.90;;;;;;5012155;28;19926;-71
2022/08/07 05:07:32;;;;;;;;;;;11.70;99.90;;;;;;5011410;28;19999;-71
2022/08/07 05:10:00;;;;;;;;;;;11.70;99.90;;;;;;5010885;28;19937;-70
2022/08/07 05:12:29;;;;;;;;;;;11.70;99.90;;;;;;5011730;28;19969;-70
2022/08/07 05:15:00;;;;;;;;;;;11.80;99.90;;;;;;5008783;28;20008;-70
2022/08/07 05:17:27;;;;;;;;;;;11.80;99.90;;;;;;5011547;28;19993;-70
2022/08/07 05:19:56;;;;;;;;;;;11.90;99.90;;;;;;5005290;28;20036;-70
2022/08/07 05:22:23;;;;;;;;;;;11.90;99.90;;;;;;5010953;28;20038;-71
2022/08/07 05:24:54;;;;;;;;;;;12.00;99.90;;;;;;5011306;28;19972;-71
2022/08/07 05:27:21;;;;;;;;;;;12.10;99.90;;;;;;5012523;28;20028;-70
2022/08/07 05:29:49;;;;;;;;;;;12.20;99.90;;;;;;5010195;28;19932;-71
2022/08/07 05:32:17;;;;;;;;;;;12.20;99.90;;;;;;5011073;28;20024;-71
2022/08/07 05:34:45;;;;;;;;;;;12.40;99.90;;;;;;5009358;28;19964;-71
2022/08/07 05:37:13;;;;;;;;;;;12.50;99.90;;;;;;5010782;28;20004;-71
2022/08/07 05:39:39;;;;;;;;;;;12.60;99.90;;;;;;5011156;28;20306;-71
2022/08/07 05:42:08;;;;;;;;;;;12.60;99.90;;;;;;5012752;28;19961;-71
2022/08/07 05:44:36;;;;;;;;;;;12.80;99.90;;;;;;5010136;28;19926;-71
2022/08/07 05:47:03;;;;;;;;;;;12.90;99.90;;;;;;5011102;28;20017;-70
2022/08/07 05:49:30;;;;;;;;;;;13.10;99.90;;;;;;5009986;28;19929;-71
2022/08/07 05:51:58;;;;;;;;;;;13.20;99.90;;;;;;5010988;28;20527;-70
2022/08/07 05:54:25;;;;;;;;;;;13.30;99.90;;;;;;5012186;28;20024;-71
2022/08/07 05:56:53;;;;;;;;;;;13.40;99.90;;;;;;5012859;28;19969;-70
2022/08/07 05:59:23;;;;;;;;;;;13.60;99.90;;;;;;5009370;28;19929;-70
2022/08/07 06:01:50;;;;;;;;;;;14.50;99.90;;;;;;5012621;28;19933;-71
2022/08/07 06:04:18;;;;;;;;;;;16.70;99.90;;;;;;5008714;28;20023;-71
2022/08/07 06:06:44;;;;;;;;;;;17.70;99.90;;;;;;5010756;28;20016;-70
2022/08/07 06:09:11;;;;;;;;;;;17.50;99.90;;;;;;5008761;28;20012;-70
2022/08/07 06:11:38;;;;;;;;;;;16.50;99.90;;;;;;5011113;28;20020;-71
2022/08/07 06:14:05;;;;;;;;;;;15.70;99.90;;;;;;5010371;28;20008;-70
2022/08/07 06:16:34;;;;;;;;;;;15.50;99.90;;;;;;5007696;28;19947;-70
2022/08/07 06:19:01;;;;;;;;;;;15.50;99.90;;;;;;5008403;28;19925;-70
2022/08/07 06:21:29;;;;;;;;;;;15.40;99.90;;;;;;5009638;28;19934;-70
2022/08/07 06:23:55;;;;;;;;;;;15.40;99.90;;;;;;5007329;28;20016;-70
2022/08/07 06:26:22;;;;;;;;;;;15.40;99.90;;;;;;5011801;28;20021;-70
2022/08/07 06:28:50;;;;;;;;;;;15.50;99.90;;;;;;5010159;28;19925;-70
2022/08/07 06:31:16;;;;;;;;;;;15.50;99.90;;;;;;5010287;28;20016;-70
2022/08/07 06:33:45;;;;;;;;;;;15.60;99.90;;;;;;5008234;28;19925;-71
2022/08/07 06:36:11;;;;;;;;;;;15.70;99.90;;;;;;5009637;28;19933;-71
2022/08/07 06:38:38;;;;;;;;;;;15.80;99.90;;;;;;5008387;28;20024;-70
2022/08/07 06:41:07;;;;;;;;;;;15.80;99.90;;;;;;5010493;28;19925;-70
2022/08/07 06:43:34;;;;;;;;;;;16.00;99.90;;;;;;5010227;28;20412;-69
2022/08/07 06:46:01;;;;;;;;;;;16.10;99.90;;;;;;5008753;28;19937;-69
2022/08/07 06:48:28;;;;;;;;;;;16.30;99.90;;;;;;5008053;28;19926;-70
2022/08/07 06:50:57;;;;;;;;;;;16.50;99.90;;;;;;5010751;28;19961;-69
2022/08/07 06:53:26;;;;;;;;;;;16.40;99.90;;;;;;5010275;28;19991;-70
2022/08/07 06:55:54;;;;;;;;;;;16.50;99.90;;;;;;5010623;28;20008;-70
2022/08/07 06:58:21;;;;;;;;;;;16.70;99.90;;;;;;5006075;28;19961;-70
2022/08/07 07:00:48;;;;;;;;;;;16.80;99.90;;;;;;5007276;28;20363;-70
2022/08/07 07:03:15;;;;;;;;;;;17.00;99.90;;;;;;5008898;28;19929;-70
2022/08/07 07:05:42;;;;;;;;;;;18.40;98.80;;;;;;5007799;28;20016;-71
2022/08/07 07:08:11;;;;;;;;;;;20.00;95.60;;;;;;5008315;28;20021;-70
2022/08/07 07:10:38;;;;;;;;;;;20.90;90.90;;;;;;5009720;28;20383;-71
2022/08/07 07:13:07;;;;;;;;;;;21.10;90.00;;;;;;5006424;28;19933;-69
2022/08/07 07:15:39;;;;;;;;;;;21.00;88.60;;;;;;5011253;28;19953;-69
2022/08/07 07:18:09;;;;;;;;;;;21.70;84.00;;;;;;5005305;28;19926;-69
2022/08/07 07:20:37;;;;;;;;;;;21.70;83.80;;;;;;5009482;28;20012;-69
2022/08/07 07:23:06;;;;;;;;;;;24.10;70.60;;;;;;5008980;28;20013;-69
2022/08/07 07:25:35;;;;;;;;;;;24.60;60.10;;;;;;5009004;28;19972;-68
2022/08/07 07:28:06;;;;;;;;;;;23.30;59.30;;;;;;5001789;28;20008;-69
2022/08/07 07:30:35;;;;;;;;;;;22.70;64.00;;;;;;5008650;28;20009;-70
2022/08/07 07:33:02;;;;;;;;;;;23.10;60.70;;;;;;5004900;28;19996;-70
2022/08/07 07:35:29;;;;;;;;;;;22.60;60.00;;;;;;5001732;28;19949;-69
2022/08/07 07:37:57;;;;;;;;;;;22.60;61.50;;;;;;5004076;28;20016;-67
2022/08/07 07:40:24;;;;;;;;;;;22.70;65.90;;;;;;5008706;28;19936;-69
2022/08/07 07:42:54;;;;;;;;;;;23.70;67.00;;;;;;5003618;28;20345;-69
2022/08/07 07:45:21;;;;;;;;;;;22.50;72.50;;;;;;5002128;28;20300;-69
2022/08/07 07:47:50;;;;;;;;;;;23.30;69.20;;;;;;4997266;28;20053;-68
2022/08/07 07:50:17;;;;;;;;;;;22.80;65.70;;;;;;4997215;28;20016;-69
2022/08/07 07:52:45;;;;;;;;;;;22.30;62.80;;;;;;5000837;28;19960;-69
2022/08/07 07:55:11;;;;;;;;;;;22.20;64.20;;;;;;5007135;28;19957;-70
2022/08/07 07:57:39;;;;;;;;;;;22.80;60.40;;;;;;5004072;28;20063;-69
2022/08/07 08:00:08;;;;;;;;;;;23.40;58.20;;;;;;5003755;28;19933;-69
2022/08/07 08:02:37;;;;;;;;;;;23.90;56.30;;;;;;4996899;28;19926;-69
2022/08/07 08:05:05;;;;;;;;;;;24.60;53.20;;;;;;5004349;28;20003;-69
2022/08/07 08:07:32;;;;;;;;;;;24.20;51.50;;;;;;4998654;28;19984;-69
2022/08/07 08:10:00;;;;;;;;;;;23.40;51.90;;;;;;5000852;28;19965;-69
2022/08/07 08:12:26;;;;;;;;;;;23.40;52.50;;;;;;5003569;28;20513;-69
2022/08/07 08:14:53;;;;;;;;;;;26.00;45.70;;;;;;5001738;28;19940;-68
2022/08/07 08:17:22;;;;;;;;;;;25.10;44.20;;;;;;5001276;28;20300;-70
2022/08/07 08:19:50;;;;;;;;;;;25.00;40.50;;;;;;4999446;28;20348;-69
2022/08/07 08:27:48;;;;;;;;;;;26.70;39.90;;;;;;4998475;28;19984;-68
2022/08/07 08:30:14;;;;;;;;;;;27.80;34.10;;;;;;5003796;28;19965;-69
2022/08/07 08:32:44;;;;;;;;;;;28.30;30.30;;;;;;4999073;28;20371;-67
2022/08/07 08:35:13;;;;;;;;;;;29.20;27.10;;;;;;5000379;28;20009;-68
2022/08/07 08:37:41;;;;;;;;;;;28.10;27.40;;;;;;5000840;28;19968;-68
2022/08/07 08:40:12;;;;;;;;;;;27.30;28.30;;;;;;4991914;28;19968;-68
2022/08/07 08:42:40;;;;;;;;;;;27.10;28.50;;;;;;4998333;28;20021;-69
2022/08/07 08:45:12;;;;;;;;;;;28.00;26.90;;;;;;5006697;28;20338;-68
2022/08/07 08:47:42;;;;;;;;;;;27.60;26.90;;;;;;5002333;28;20024;-69
2022/08/07 08:50:13;;;;;;;;;;;27.00;27.00;;;;;;5001821;28;21077;-65
2022/08/07 08:52:45;;;;;;;;;;;26.70;27.70;;;;;;5002581;28;20392;-67
2022/08/07 08:55:14;;;;;;;;;;;26.10;29.70;;;;;;5004971;28;20032;-67
2022/08/07 08:57:44;;;;;;;;;;;25.30;31.40;;;;;;5002670;28;19926;-69
2022/08/07 09:00:11;;;;;;;;;;;25.70;30.60;;;;;;5006211;28;20012;-69
2022/08/07 09:02:41;;;;;;;;;;;27.10;28.30;;;;;;5005468;28;19961;-69
2022/08/07 09:05:19;;;;;;;;;;;25.90;29.30;;;;;;5000863;28;19940;-69
2022/08/07 09:07:51;;;;;;;;;;;25.10;29.60;;;;;;4998900;28;20042;-68
2022/08/07 09:10:21;;;;;;;;;;;26.00;30.00;;;;;;5002195;28;20024;-67
2022/08/07 09:12:51;;;;;;;;;;;26.60;28.60;;;;;;5006052;28;20443;-68
2022/08/07 09:15:27;;;;;;;;;;;26.90;28.00;;;;;;5005680;28;20020;-68
2022/08/07 09:18:01;;;;;;;;;;;27.60;26.00;;;;;;5003832;28;20405;-69
2022/08/07 09:20:32;;;;;;;;;;;27.60;25.10;;;;;;5000525;28;19965;-68
2022/08/07 09:23:03;;;;;;;;;;;25.80;26.90;;;;;;5002903;28;19960;-68
2022/08/07 09:25:34;;;;;;;;;;;25.90;28.10;;;;;;4999142;28;19929;-68
2022/08/07 09:28:03;;;;;;;;;;;26.20;26.90;;;;;;5005096;28;20330;-68
2022/08/07 09:30:37;;;;;;;;;;;26.60;25.60;;;;;;5005362;28;20040;-68
2022/08/07 09:33:08;;;;;;;;;;;27.10;24.70;;;;;;5006026;28;19940;-68
2022/08/07 09:35:45;;;;;;;;;;;27.80;23.70;;;;;;5007677;28;20269;-68
2022/08/07 09:38:16;;;;;;;;;;;29.00;22.70;;;;;;4999231;28;20411;-68
2022/08/07 09:40:58;;;;;;;;;;;26.90;23.00;;;;;;5005529;28;19941;-68
2022/08/07 09:43:30;;;;;;;;;;;25.00;26.90;;;;;;4997216;28;20447;-68
2022/08/07 09:46:01;;;;;;;;;;;25.10;27.50;;;;;;4998606;28;20000;-67
2022/08/07 09:48:34;;;;;;;;;;;25.30;25.80;;;;;;5000045;28;20008;-68
2022/08/07 09:51:08;;;;;;;;;;;27.10;24.00;;;;;;5007714;28;19977;-68
2022/08/07 09:53:37;;;;;;;;;;;27.70;23.20;;;;;;5009185;28;20385;-68
2022/08/07 09:56:22;;;;;;;;;;;27.50;23.10;;;;;;5001216;28;19929;-67
2022/08/07 09:59:06;;;;;;;;;;;27.30;23.30;;;;;;5007750;28;19932;-68
2022/08/07 10:01:39;;;;;;;;;;;25.80;24.10;;;;;;5007100;28;19979;-67
2022/08/07 10:04:14;;;;;;;;;;;26.50;23.30;;;;;;5004106;28;19934;-67
2022/08/07 10:06:49;;;;;;;;;;;25.60;24.60;;;;;;5003513;28;19939;-68
2022/08/07 10:09:29;;;;;;;;;;;25.50;24.30;;;;;;5003445;28;19934;-67
2022/08/07 10:12:04;;;;;;;;;;;26.70;21.30;;;;;;5005881;28;19936;-67
2022/08/07 10:14:46;;;;;;;;;;;25.80;22.50;;;;;;5009194;28;19968;-67
2022/08/07 10:17:24;;;;;;;;;;;24.30;24.90;;;;;;5001272;28;19980;-67
2022/08/07 10:19:59;;;;;;;;;;;23.90;25.10;;;;;;5004377;28;19953;-67
2022/08/07 10:22:38;;;;;;;;;;;23.50;23.70;;;;;;5005689;28;20401;-68
2022/08/07 10:25:13;;;;;;;;;;;23.00;24.20;;;;;;5007417;28;20008;-68
2022/08/07 10:27:52;;;;;;;;;;;23.30;23.70;;;;;;4995469;28;19985;-68
2022/08/07 10:30:19;;;;;;;;;;;22.90;26.60;;;;;;5004165;28;20405;-67
2022/08/07 10:33:10;;;;;;;;;;;22.50;27.10;;;;;;5000223;28;20576;-68
2022/08/07 10:35:46;;;;;;;;;;;22.70;26.70;;;;;;5000207;28;20062;-68
2022/08/07 10:38:25;;;;;;;;;;;23.10;26.00;;;;;;5000978;28;20016;-68
2022/08/07 10:40:56;;;;;;;;;;;23.40;25.00;;;;;;5003812;28;19965;-69
2022/08/07 10:43:27;;;;;;;;;;;23.20;24.80;;;;;;5004949;28;19926;-68
2022/08/07 10:45:57;;;;;;;;;;;22.60;24.00;;;;;;5000144;28;19925;-69
2022/08/07 10:48:34;;;;;;;;;;;22.30;24.70;;;;;;5008606;28;20383;-69
2022/08/07 10:51:03;;;;;;;;;;;22.40;25.00;;;;;;5006745;28;19925;-69
2022/08/07 10:53:35;;;;;;;;;;;22.80;23.90;;;;;;5007503;28;19932;-69
2022/08/07 10:56:04;;;;;;;;;;;23.00;23.90;;;;;;5000861;28;19988;-69
2022/08/07 10:58:39;;;;;;;;;;;23.40;24.60;;;;;;5007889;28;20344;-68
2022/08/07 11:01:15;;;;;;;;;;;23.50;25.00;;;;;;5003195;28;19941;-68
2022/08/07 11:03:45;;;;;;;;;;;23.60;24.60;;;;;;5009327;28;19925;-67
2022/08/07 11:06:16;;;;;;;;;;;23.50;23.80;;;;;;5008678;28;20028;-66
2022/08/07 11:08:48;;;;;;;;;;;22.70;24.00;;;;;;5006400;28;19926;-66
2022/08/07 11:11:17;;;;;;;;;;;23.00;23.80;;;;;;5007905;28;19934;-66
2022/08/07 11:13:48;;;;;;;;;;;23.40;23.60;;;;;;5003822;28;20446;-67
2022/08/07 11:16:16;;;;;;;;;;;23.80;23.10;;;;;;5005641;28;20032;-67
2022/08/07 11:18:48;;;;;;;;;;;23.00;23.80;;;;;;4999756;28;19934;-68
2022/08/07 11:21:23;;;;;;;;;;;22.80;23.60;;;;;;5004303;28;20036;-67
2022/08/07 11:23:53;;;;;;;;;;;23.00;23.50;;;;;;5000313;28;19926;-67
2022/08/07 11:26:24;;;;;;;;;;;23.00;24.10;;;;;;5007251;28;20012;-67
2022/08/07 11:28:53;;;;;;;;;;;23.00;24.20;;;;;;5004731;28;19972;-66
2022/08/07 11:31:24;;;;;;;;;;;23.30;24.50;;;;;;4998827;28;20439;-66
2022/08/07 11:33:54;;;;;;;;;;;22.60;25.30;;;;;;4997116;28;20345;-68
2022/08/07 11:36:30;;;;;;;;;;;22.30;25.00;;;;;;4999756;28;19925;-67
2022/08/07 11:39:04;;;;;;;;;;;22.80;24.30;;;;;;5003006;28;19971;-68
2022/08/07 11:41:36;;;;;;;;;;;22.90;24.40;;;;;;5004715;28;19972;-67
2022/08/07 11:44:08;;;;;;;;;;;23.30;23.70;;;;;;5003199;28;20028;-67
2022/08/07 11:46:43;;;;;;;;;;;23.60;23.20;;;;;;4998797;28;20051;-67
2022/08/07 11:49:28;;;;;;;;;;;23.90;22.10;;;;;;5002808;28;20372;-66
2022/08/07 11:52:01;;;;;;;;;;;23.70;21.60;;;;;;5002977;28;19925;-67
2022/08/07 11:54:38;;;;;;;;;;;24.00;21.90;;;;;;5007517;28;20419;-67
2022/08/07 11:57:15;;;;;;;;;;;23.30;23.60;;;;;;5001147;28;19932;-67
2022/08/07 11:59:52;;;;;;;;;;;23.10;24.50;;;;;;5002467;28;20408;-67
2022/08/07 12:02:27;;;;;;;;;;;23.10;24.10;;;;;;5009884;28;19973;-67
2022/08/07 12:05:01;;;;;;;;;;;23.20;24.60;;;;;;5007016;28;20317;-67
2022/08/07 12:07:32;;;;;;;;;;;23.50;24.80;;;;;;4995103;28;19929;-67
2022/08/07 12:10:04;;;;;;;;;;;23.60;24.30;;;;;;5004827;28;19936;-66
2022/08/07 12:12:35;;;;;;;;;;;23.20;24.30;;;;;;5005810;28;20325;-67
2022/08/07 12:15:03;;;;;;;;;;;22.90;25.70;;;;;;5002420;28;19992;-66
2022/08/07 12:17:33;;;;;;;;;;;23.20;25.70;;;;;;4985220;28;20036;-67
2022/08/07 12:20:03;;;;;;;;;;;23.30;26.00;;;;;;4996906;28;19933;-66
2022/08/07 12:22:36;;;;;;;;;;;23.50;25.40;;;;;;4994813;28;19982;-67
2022/08/07 12:27:56;;;;;;;;;;;23.10;24.30;;;;;;4999485;28;19932;-67
2022/08/07 12:30:25;;;;;;;;;;;23.40;25.30;;;;;;5003758;28;20004;-67
2022/08/07 12:32:58;;;;;;;;;;;23.40;24.70;;;;;;4993436;28;19925;-67
2022/08/07 12:35:25;;;;;;;;;;;23.80;25.10;;;;;;5004198;28;20016;-67
2022/08/07 12:37:53;;;;;;;;;;;23.70;24.30;;;;;;4998251;28;20452;-67
2022/08/07 12:40:23;;;;;;;;;;;23.90;24.00;;;;;;5001039;28;19936;-67
2022/08/07 12:42:51;;;;;;;;;;;23.40;24.10;;;;;;5002919;28;19975;-67
2022/08/07 12:45:19;;;;;;;;;;;23.30;23.90;;;;;;5006316;28;19925;-67
2022/08/07 12:47:49;;;;;;;;;;;23.50;23.40;;;;;;5003062;28;19965;-66
2022/08/07 12:50:19;;;;;;;;;;;23.80;23.60;;;;;;4996604;28;20356;-67
2022/08/07 12:52:48;;;;;;;;;;;24.30;23.90;;;;;;4996938;28;19925;-67
2022/08/07 12:55:21;;;;;;;;;;;23.70;24.50;;;;;;4997439;28;19984;-66
2022/08/07 12:57:50;;;;;;;;;;;23.40;25.10;;;;;;4998420;28;20452;-67
2022/08/07 13:00:17;;;;;;;;;;;23.80;24.80;;;;;;4997630;28;20012;-67
2022/08/07 13:02:55;;;;;;;;;;;24.20;24.60;;;;;;5004795;28;19957;-67
2022/08/07 13:05:29;;;;;;;;;;;23.90;24.40;;;;;;5001950;28;19965;-67
2022/08/07 13:08:09;;;;;;;;;;;24.00;24.20;;;;;;5001048;28;20028;-68
2022/08/07 13:10:47;;;;;;;;;;;24.20;24.00;;;;;;5002570;28;20011;-68
2022/08/07 13:13:23;;;;;;;;;;;24.10;24.40;;;;;;4999060;28;20027;-69
2022/08/07 13:15:53;;;;;;;;;;;24.30;24.50;;;;;;4999321;28;20387;-68
2022/08/07 13:18:24;;;;;;;;;;;24.30;24.50;;;;;;5001123;28;19926;-68
2022/08/07 13:20:55;;;;;;;;;;;24.40;24.20;;;;;;4998320;28;19926;-67
2022/08/07 13:23:26;;;;;;;;;;;24.10;24.00;;;;;;4998946;28;19932;-67
2022/08/07 13:25:54;;;;;;;;;;;24.00;24.30;;;;;;5000814;28;20020;-67
2022/08/07 13:28:27;;;;;;;;;;;24.60;23.50;;;;;;5002449;28;20020;-67
2022/08/07 13:30:57;;;;;;;;;;;24.80;23.60;;;;;;5001797;28;20036;-68
2022/08/07 13:33:27;;;;;;;;;;;24.60;23.30;;;;;;4999033;28;20060;-68
2022/08/07 13:35:57;;;;;;;;;;;24.30;23.30;;;;;;4995575;28;19970;-69
2022/08/07 13:38:27;;;;;;;;;;;24.00;24.50;;;;;;4992989;28;20317;-69
2022/08/07 13:40:57;;;;;;;;;;;23.80;24.70;;;;;;5001460;28;19936;-68
2022/08/07 13:43:27;;;;;;;;;;;24.40;24.30;;;;;;5007484;28;20407;-67
2022/08/07 13:45:55;;;;;;;;;;;24.70;24.10;;;;;;4995553;28;19934;-66
2022/08/07 13:48:23;;;;;;;;;;;24.30;24.70;;;;;;5009824;28;20016;-67
2022/08/07 13:50:50;;;;;;;;;;;24.50;24.50;;;;;;5004701;28;20016;-67
2022/08/07 13:53:19;;;;;;;;;;;24.20;24.70;;;;;;5009890;28;19955;-68
2022/08/07 13:55:46;;;;;;;;;;;24.40;24.60;;;;;;5012028;28;19937;-66
2022/08/07 14:01:01;;;;;;;;;;;24.20;24.20;;;;;;5006979;28;19933;-66
2022/08/07 14:03:30;;;;;;;;;;;24.40;24.00;;;;;;5009017;28;20385;-67
2022/08/07 14:05:57;;;;;;;;;;;24.60;23.30;;;;;;5012331;28;20308;-67
2022/08/07 14:08:24;;;;;;;;;;;24.50;23.60;;;;;;5006014;28;19937;-66
2022/08/07 14:10:51;;;;;;;;;;;24.20;23.00;;;;;;5005599;28;20020;-66
2022/08/07 14:13:20;;;;;;;;;;;24.50;23.00;;;;;;5007341;28;19933;-67
2022/08/07 14:15:51;;;;;;;;;;;24.80;22.90;;;;;;5005065;28;20033;-68
2022/08/07 14:18:21;;;;;;;;;;;25.10;22.20;;;;;;5007299;28;20457;-70
2022/08/07 14:20:49;;;;;;;;;;;25.20;21.80;;;;;;5004725;28;19929;-67
2022/08/07 14:23:17;;;;;;;;;;;25.30;21.20;;;;;;5002336;28;20400;-67
2022/08/07 14:25:46;;;;;;;;;;;25.20;21.50;;;;;;5003820;28;19947;-67
2022/08/07 14:28:15;;;;;;;;;;;24.70;20.90;;;;;;5009941;28;19925;-67
2022/08/07 14:30:45;;;;;;;;;;;24.90;21.00;;;;;;5009668;28;20431;-67
2022/08/07 14:33:14;;;;;;;;;;;24.60;21.10;;;;;;5009218;28;19926;-67
2022/08/07 14:35:42;;;;;;;;;;;24.40;21.20;;;;;;5001812;28;20045;-66
2022/08/07 14:38:09;;;;;;;;;;;24.40;21.10;;;;;;5002399;28;20389;-68
2022/08/07 14:40:36;;;;;;;;;;;24.90;21.00;;;;;;4995930;28;20381;-68